Time;durP1;ratioP1;P1;durP2;ratioP2;P2;SDS_P1;SDS_P2;PMS_P1;PMS_P2;Temp;Humidity;BMP_temperature;BMP_pressure;BME280_temperature;BME280_humidity;BME280_pressure;Samples;Min_cycle;Max_cycle;Signal;HPM_P1;HPM_P2
2023/05/14 00:02:00;;;;;;;;;;;;;;;9.85;77.15;98058.88;5079006;28;19942;-58
2023/05/14 00:04:48;;;;;;;;;;;;;;;9.87;77.46;98055.88;5085021;28;19935;-59
2023/05/14 00:07:40;;;;;;;;;;;;;;;9.87;77.11;98053.97;5081207;28;19934;-58
2023/05/14 00:10:28;;;;;;;;;;;;;;;9.85;77.19;98052.63;5081353;28;20079;-60
2023/05/14 00:13:16;;;;;;;;;;;;;;;9.85;77.36;98048.00;5073629;28;19930;-57
2023/05/14 00:16:04;;;;;;;;;;;;;;;9.85;77.13;98041.78;5084468;28;19935;-59
2023/05/14 00:18:52;;;;;;;;;;;;;;;9.85;77.55;98042.59;5078602;28;19967;-58
2023/05/14 00:21:40;;;;;;;;;;;;;;;9.84;77.49;98032.03;5082247;28;20587;-57
2023/05/14 00:24:30;;;;;;;;;;;;;;;9.82;77.73;98032.34;5088812;28;20034;-60
2023/05/14 00:27:18;;;;;;;;;;;;;;;9.83;77.60;98027.72;5087543;28;20605;-58
2023/05/14 00:30:07;;;;;;;;;;;;;;;9.85;77.77;98017.38;5082505;28;19943;-63
2023/05/14 00:32:55;;;;;;;;;;;;;;;9.83;77.60;98011.44;5091630;28;20096;-60
2023/05/14 00:35:43;;;;;;;;;;;;;;;9.78;77.61;98016.97;5072890;28;19950;-57
2023/05/14 00:38:31;;;;;;;;;;;;;;;9.75;78.09;98020.28;5078287;28;20457;-58
2023/05/14 00:41:22;;;;;;;;;;;;;;;9.77;77.92;98013.47;5098596;27;19935;-58
2023/05/14 00:44:10;;;;;;;;;;;;;;;9.73;77.82;98020.59;5078613;28;19935;-58
2023/05/14 00:46:58;;;;;;;;;;;;;;;9.78;77.65;98017.78;5083223;28;19949;-61
2023/05/14 00:49:47;;;;;;;;;;;;;;;9.74;77.79;98013.25;5068825;28;19947;-60
2023/05/14 00:52:35;;;;;;;;;;;;;;;9.76;77.82;98016.50;5084618;28;19938;-59
2023/05/14 00:55:23;;;;;;;;;;;;;;;9.68;77.96;98015.28;5086112;28;19954;-58
2023/05/14 00:58:13;;;;;;;;;;;;;;;9.64;78.08;98009.69;5102520;28;19954;-57
2023/05/14 01:01:01;;;;;;;;;;;;;;;9.62;78.22;98011.88;5114089;27;20453;-60
2023/05/14 01:03:52;;;;;;;;;;;;;;;9.64;78.30;98015.09;5078402;28;20417;-57
2023/05/14 01:06:42;;;;;;;;;;;;;;;9.62;78.27;98017.28;5082860;28;20573;-59
2023/05/14 01:09:32;;;;;;;;;;;;;;;9.69;78.27;98014.16;5075507;28;20291;-58
2023/05/14 01:12:21;;;;;;;;;;;;;;;9.74;78.03;98015.97;5074992;28;19992;-58
2023/05/14 01:15:11;;;;;;;;;;;;;;;9.70;77.98;98022.03;5085253;28;19939;-59
2023/05/14 01:18:08;;;;;;;;;;;;;;;9.73;77.73;98025.22;5078187;28;19956;-57
2023/05/14 01:20:57;;;;;;;;;;;;;;;9.67;77.83;98014.47;5072703;28;20033;-59
2023/05/14 01:23:49;;;;;;;;;;;;;;;9.63;77.72;98024.31;5107686;27;21506;-58
2023/05/14 01:26:37;;;;;;;;;;;;;;;9.71;77.81;98020.91;5086628;28;19931;-58
2023/05/14 01:29:26;;;;;;;;;;;;;;;9.72;77.82;98024.44;5079889;28;19938;-57
2023/05/14 01:32:14;;;;;;;;;;;;;;;9.69;77.88;98022.31;5092210;28;20009;-57
2023/05/14 01:35:02;;;;;;;;;;;;;;;9.72;77.68;98021.72;5102895;27;20763;-57
2023/05/14 01:37:50;;;;;;;;;;;;;;;9.81;77.36;98019.91;5099922;27;20320;-58
2023/05/14 01:40:42;;;;;;;;;;;;;;;9.82;77.21;98020.72;5087844;28;19997;-61
2023/05/14 01:43:31;;;;;;;;;;;;;;;9.81;77.13;98024.53;5071124;28;20003;-59
2023/05/14 01:46:19;;;;;;;;;;;;;;;9.84;76.95;98023.91;5078386;28;19931;-58
2023/05/14 01:49:08;;;;;;;;;;;;;;;9.81;77.00;98021.81;5085405;28;20528;-59
2023/05/14 01:51:56;;;;;;;;;;;;;;;9.81;77.02;98019.91;5080539;28;19965;-60
2023/05/14 01:54:44;;;;;;;;;;;;;;;9.80;77.21;98012.88;5081241;28;20065;-60
2023/05/14 01:57:33;;;;;;;;;;;;;;;9.83;77.27;98014.97;5076004;28;19920;-62
2023/05/14 02:00:23;;;;;;;;;;;;;;;9.87;77.34;98010.53;5097388;28;19920;-57
2023/05/14 02:03:11;;;;;;;;;;;;;;;9.89;77.19;98015.66;5091718;28;20074;-58
2023/05/14 02:06:00;;;;;;;;;;;;;;;9.84;77.27;98016.56;5097861;27;20444;-59
2023/05/14 02:08:48;;;;;;;;;;;;;;;9.79;77.43;98011.25;5083159;28;20684;-58
2023/05/14 02:11:36;;;;;;;;;;;;;;;9.80;77.87;98009.34;5097723;27;19932;-57
2023/05/14 02:14:26;;;;;;;;;;;;;;;9.82;78.04;98007.13;5108499;27;19934;-59
2023/05/14 02:17:16;;;;;;;;;;;;;;;9.88;78.07;98003.19;5099943;27;19927;-59
2023/05/14 02:20:05;;;;;;;;;;;;;;;9.95;77.85;98003.59;5089154;28;19955;-61
2023/05/14 02:22:54;;;;;;;;;;;;;;;9.98;77.69;98002.97;5094294;28;20411;-58
2023/05/14 02:25:42;;;;;;;;;;;;;;;10.04;77.54;97992.81;5080307;28;19946;-58
2023/05/14 02:28:30;;;;;;;;;;;;;;;10.05;77.47;97997.13;5083356;28;19942;-61
2023/05/14 02:31:21;;;;;;;;;;;;;;;10.06;77.18;97994.09;5095544;28;20590;-59
2023/05/14 02:34:09;;;;;;;;;;;;;;;10.14;76.77;97995.31;5092691;28;19980;-63
2023/05/14 02:36:57;;;;;;;;;;;;;;;10.14;76.75;97993.41;5105970;27;20644;-58
2023/05/14 02:39:45;;;;;;;;;;;;;;;10.12;76.68;97995.63;5065551;28;19921;-58
2023/05/14 02:42:35;;;;;;;;;;;;;;;10.08;76.75;97985.69;5083200;28;19950;-58
2023/05/14 02:45:24;;;;;;;;;;;;;;;10.15;76.60;98005.06;5069378;28;19931;-59
2023/05/14 02:48:13;;;;;;;;;;;;;;;10.15;76.60;97997.72;5074240;28;19950;-58
2023/05/14 02:51:02;;;;;;;;;;;;;;;10.16;76.52;98001.22;5075956;28;19974;-56
2023/05/14 02:53:50;;;;;;;;;;;;;;;10.28;75.90;98000.72;5079442;28;20022;-61
2023/05/14 02:56:38;;;;;;;;;;;;;;;10.25;76.17;97994.00;5077867;28;20705;-59
2023/05/14 02:59:26;;;;;;;;;;;;;;;10.25;75.97;97993.19;5110853;27;20183;-58
2023/05/14 03:02:14;;;;;;;;;;;;;;;10.27;76.22;97993.69;5070386;28;19939;-57
2023/05/14 03:05:04;;;;;;;;;;;;;;;10.32;75.81;97990.84;5101653;27;20579;-58
2023/05/14 03:07:53;;;;;;;;;;;;;;;10.30;75.79;97993.88;5083366;28;19969;-57
2023/05/14 03:10:41;;;;;;;;;;;;;;;10.29;75.86;97991.47;5081687;28;19938;-59
2023/05/14 03:13:29;;;;;;;;;;;;;;;10.28;76.06;97992.56;5074745;28;19924;-59
2023/05/14 03:16:17;;;;;;;;;;;;;;;10.30;76.23;97988.44;5087283;28;20080;-58
2023/05/14 03:19:05;;;;;;;;;;;;;;;10.30;76.08;97991.16;5073978;28;19937;-57
2023/05/14 03:21:55;;;;;;;;;;;;;;;10.29;76.07;97991.47;5103819;27;19932;-58
2023/05/14 03:24:43;;;;;;;;;;;;;;;10.43;75.46;97982.16;5084522;28;19979;-58
2023/05/14 03:27:32;;;;;;;;;;;;;;;10.31;75.80;97990.03;5072887;28;20408;-59
2023/05/14 03:30:20;;;;;;;;;;;;;;;10.41;75.81;97986.28;5082958;28;19943;-58
2023/05/14 03:33:09;;;;;;;;;;;;;;;10.39;75.57;97986.59;5075718;28;19935;-60
2023/05/14 03:35:57;;;;;;;;;;;;;;;10.39;75.83;97983.88;5062757;28;19927;-59
2023/05/14 03:38:46;;;;;;;;;;;;;;;10.37;75.93;97993.44;5076769;28;19927;-58
2023/05/14 03:41:36;;;;;;;;;;;;;;;10.45;75.25;97982.66;5065827;28;20011;-62
2023/05/14 03:44:24;;;;;;;;;;;;;;;10.40;75.41;97980.06;5082355;28;19955;-58
2023/05/14 03:47:13;;;;;;;;;;;;;;;10.36;75.76;97989.13;5104881;27;20001;-59
2023/05/14 03:50:01;;;;;;;;;;;;;;;10.39;75.86;97992.03;5074367;28;19934;-58
2023/05/14 03:52:49;;;;;;;;;;;;;;;10.38;76.08;97990.41;5075885;28;20074;-60
2023/05/14 03:55:39;;;;;;;;;;;;;;;10.39;75.41;97983.88;5082687;28;19950;-58
2023/05/14 03:58:31;;;;;;;;;;;;;;;10.51;74.87;97990.69;5069175;28;19928;-61
2023/05/14 04:01:20;;;;;;;;;;;;;;;10.48;75.06;97992.88;5068864;28;19966;-60
2023/05/14 04:04:08;;;;;;;;;;;;;;;10.54;74.50;97982.69;5095456;27;19920;-59
2023/05/14 04:06:56;;;;;;;;;;;;;;;10.45;74.91;97985.38;5070075;28;20537;-57
2023/05/14 04:09:44;;;;;;;;;;;;;;;10.40;75.52;97990.91;5080901;28;19957;-57
2023/05/14 04:12:34;;;;;;;;;;;;;;;10.53;74.58;97983.81;5084385;28;19949;-57
2023/05/14 04:15:23;;;;;;;;;;;;;;;10.49;74.71;97980.94;5062213;28;20037;-60
2023/05/14 04:18:11;;;;;;;;;;;;;;;10.54;74.93;97981.91;5105934;27;20403;-60
2023/05/14 04:21:01;;;;;;;;;;;;;;;10.53;74.60;97983.81;5092532;28;19965;-57
2023/05/14 04:23:50;;;;;;;;;;;;;;;10.54;75.15;97987.34;5079723;28;19931;-57
2023/05/14 04:26:39;;;;;;;;;;;;;;;10.49;75.13;97999.13;5067936;28;20017;-59
2023/05/14 04:29:28;;;;;;;;;;;;;;;10.49;75.15;97999.94;5079057;28;19928;-59
2023/05/14 04:32:17;;;;;;;;;;;;;;;10.68;74.04;97983.44;5081308;28;19924;-59
2023/05/14 04:35:05;;;;;;;;;;;;;;;10.67;73.64;97986.47;5087233;28;20007;-58
2023/05/14 04:37:53;;;;;;;;;;;;;;;10.57;73.60;97976.66;5078934;28;19924;-57
2023/05/14 04:40:41;;;;;;;;;;;;;;;10.62;73.36;97976.53;5085215;28;19931;-60
2023/05/14 04:43:30;;;;;;;;;;;;;;;10.58;73.87;97977.47;5072537;28;19928;-59
2023/05/14 04:46:19;;;;;;;;;;;;;;;10.53;74.16;97975.66;5082871;28;19931;-57
2023/05/14 04:49:08;;;;;;;;;;;;;;;10.57;74.01;97973.94;5068425;28;19933;-58
2023/05/14 04:51:57;;;;;;;;;;;;;;;10.63;73.74;97980.06;5096195;28;19920;-59
2023/05/14 04:54:45;;;;;;;;;;;;;;;10.76;73.60;97971.03;5077425;28;19955;-58
2023/05/14 04:57:33;;;;;;;;;;;;;;;10.87;72.64;97969.66;5076371;28;20007;-58
2023/05/14 05:00:22;;;;;;;;;;;;;;;10.91;72.47;97978.78;5070603;28;19962;-61
2023/05/14 05:03:11;;;;;;;;;;;;;;;10.98;72.00;97973.72;5086199;28;19955;-60
2023/05/14 05:05:59;;;;;;;;;;;;;;;11.04;71.96;97973.59;5093345;28;19954;-57
2023/05/14 05:08:50;;;;;;;;;;;;;;;11.09;72.28;97970.72;5062765;28;19962;-62
2023/05/14 05:11:38;;;;;;;;;;;;;;;11.12;71.57;97978.25;5068934;28;19942;-58
2023/05/14 05:14:29;;;;;;;;;;;;;;;11.20;71.10;97972.84;5074923;28;19950;-60
2023/05/14 05:17:17;;;;;;;;;;;;;;;11.30;70.56;97970.97;5081658;28;19999;-58
2023/05/14 05:20:08;;;;;;;;;;;;;;;11.10;71.14;97966.88;5085876;28;19956;-57
2023/05/14 05:22:59;;;;;;;;;;;;;;;11.01;71.31;97967.63;5090588;28;19924;-59
2023/05/14 05:25:47;;;;;;;;;;;;;;;11.00;71.67;97967.97;5086428;28;19927;-57
2023/05/14 05:28:35;;;;;;;;;;;;;;;10.93;71.81;97962.97;5084652;28;20092;-57
2023/05/14 05:31:24;;;;;;;;;;;;;;;10.94;71.55;97961.84;5078916;28;19920;-58
2023/05/14 05:34:12;;;;;;;;;;;;;;;11.05;70.96;97961.59;5076543;28;19958;-61
2023/05/14 05:37:01;;;;;;;;;;;;;;;11.09;71.12;97957.13;5086001;28;19981;-58
2023/05/14 05:39:50;;;;;;;;;;;;;;;11.16;70.69;97955.56;5079596;28;19919;-58
2023/05/14 05:42:38;;;;;;;;;;;;;;;11.16;70.21;97962.91;5079728;28;19920;-59
2023/05/14 05:45:26;;;;;;;;;;;;;;;11.08;71.08;97969.09;5078741;28;19976;-61
2023/05/14 05:48:14;;;;;;;;;;;;;;;11.07;70.76;97962.88;5080392;28;20317;-59
2023/05/14 05:51:02;;;;;;;;;;;;;;;11.19;70.94;97954.16;5072446;28;19936;-60
2023/05/14 05:53:52;;;;;;;;;;;;;;;11.38;70.45;97962.84;5077099;28;19920;-57
2023/05/14 05:56:40;;;;;;;;;;;;;;;11.51;70.20;97953.78;5081397;28;20007;-59
2023/05/14 05:59:28;;;;;;;;;;;;;;;11.71;69.19;97962.44;5081197;28;19924;-60
2023/05/14 06:02:16;;;;;;;;;;;;;;;12.01;68.64;97958.84;5083483;28;19920;-59
2023/05/14 06:05:05;;;;;;;;;;;;;;;12.12;67.62;97956.59;5084080;28;20380;-59
2023/05/14 06:07:53;;;;;;;;;;;;;;;12.22;67.40;97960.94;5073742;28;19924;-59
2023/05/14 06:10:42;;;;;;;;;;;;;;;12.25;67.38;97960.28;5085088;28;19945;-59
2023/05/14 06:13:35;;;;;;;;;;;;;;;12.22;67.29;97959.00;5084449;28;19921;-58
2023/05/14 06:16:23;;;;;;;;;;;;;;;12.35;66.71;97959.16;5083938;28;19928;-59
2023/05/14 06:19:11;;;;;;;;;;;;;;;12.57;65.84;97965.25;5091405;27;20752;-59
2023/05/14 06:21:59;;;;;;;;;;;;;;;12.68;65.40;97970.38;5073164;28;19920;-58
2023/05/14 06:24:47;;;;;;;;;;;;;;;12.78;64.98;97975.44;5077299;28;19958;-57
2023/05/14 06:27:38;;;;;;;;;;;;;;;12.73;64.92;97971.00;5074731;28;19920;-58
2023/05/14 06:30:26;;;;;;;;;;;;;;;12.72;64.64;97963.13;5067025;28;19947;-60
2023/05/14 06:33:14;;;;;;;;;;;;;;;12.73;64.95;97962.00;5066804;28;20087;-59
2023/05/14 06:36:03;;;;;;;;;;;;;;;12.71;64.81;97964.25;5058363;28;19924;-59
2023/05/14 06:38:52;;;;;;;;;;;;;;;12.70;64.86;97970.81;5065920;28;19935;-59
2023/05/14 06:41:40;;;;;;;;;;;;;;;12.71;64.79;97969.69;5068912;28;20076;-60
2023/05/14 06:44:35;;;;;;;;;;;;;;;12.72;64.01;97977.53;5087957;28;19972;-59
2023/05/14 06:47:23;;;;;;;;;;;;;;;12.74;64.20;97977.25;5070393;28;20654;-59
2023/05/14 06:50:13;;;;;;;;;;;;;;;12.70;64.39;97970.81;5078581;28;20320;-59
2023/05/14 06:53:01;;;;;;;;;;;;;;;12.81;64.97;97963.91;5070416;28;19954;-59
2023/05/14 06:55:49;;;;;;;;;;;;;;;12.86;64.83;97961.00;5082459;28;20035;-59
2023/05/14 06:58:39;;;;;;;;;;;;;;;12.93;64.19;97961.31;5087720;28;19998;-57
2023/05/14 07:01:29;;;;;;;;;;;;;;;13.11;63.83;97965.59;5079376;28;19931;-58
2023/05/14 07:04:17;;;;;;;;;;;;;;;13.11;63.18;97964.78;5082521;28;19927;-57
2023/05/14 07:07:06;;;;;;;;;;;;;;;13.08;62.94;97971.69;5077088;28;20408;-61
2023/05/14 07:09:54;;;;;;;;;;;;;;;13.16;62.61;97964.63;5076165;28;19932;-58
2023/05/14 07:12:42;;;;;;;;;;;;;;;13.30;62.76;97964.41;5069261;28;19924;-58
2023/05/14 07:15:31;;;;;;;;;;;;;;;13.47;62.98;97966.25;5068777;28;20061;-60
2023/05/14 07:18:20;;;;;;;;;;;;;;;13.51;62.64;97969.94;5081150;28;20000;-57
2023/05/14 07:21:09;;;;;;;;;;;;;;;13.59;61.81;97963.66;5096759;27;19927;-59
2023/05/14 07:23:57;;;;;;;;;;;;;;;13.69;61.35;97963.28;5092369;28;20569;-62
2023/05/14 07:26:45;;;;;;;;;;;;;;;13.88;61.00;97954.63;5083773;28;19939;-59
2023/05/14 07:29:33;;;;;;;;;;;;;;;14.04;60.84;97960.31;5094565;28;20642;-58
2023/05/14 07:32:23;;;;;;;;;;;;;;;14.24;61.42;97964.97;5087301;28;19920;-58
2023/05/14 07:35:13;;;;;;;;;;;;;;;14.42;59.57;97963.69;5083652;28;19958;-58
2023/05/14 07:38:02;;;;;;;;;;;;;;;14.50;59.00;97953.84;5077125;28;19939;-60
2023/05/14 07:40:50;;;;;;;;;;;;;;;14.57;58.97;97953.31;5079387;28;19953;-59
2023/05/14 07:43:39;;;;;;;;;;;;;;;14.60;59.14;97949.91;5082738;28;19970;-59
2023/05/14 07:46:27;;;;;;;;;;;;;;;14.49;59.04;97949.53;5077682;28;19937;-59
2023/05/14 07:49:15;;;;;;;;;;;;;;;14.43;58.28;97945.34;5077095;28;19983;-59
2023/05/14 07:52:05;;;;;;;;;;;;;;;14.40;58.33;97944.09;5079096;28;20108;-58
2023/05/14 07:54:54;;;;;;;;;;;;;;;14.50;58.63;97945.66;5070495;28;19986;-58
2023/05/14 07:57:42;;;;;;;;;;;;;;;14.53;58.75;97942.22;5080406;28;20018;-60
2023/05/14 08:00:30;;;;;;;;;;;;;;;14.56;58.73;97933.38;5085062;28;19966;-57
2023/05/14 08:03:19;;;;;;;;;;;;;;;14.42;58.98;97943.75;5083368;28;19934;-60
2023/05/14 08:06:07;;;;;;;;;;;;;;;14.36;59.04;97940.44;5083508;28;20026;-57
2023/05/14 08:08:58;;;;;;;;;;;;;;;14.42;59.06;97936.34;5083950;28;19920;-61
2023/05/14 08:11:46;;;;;;;;;;;;;;;14.44;59.33;97940.72;5112699;27;19950;-57
2023/05/14 08:14:34;;;;;;;;;;;;;;;14.34;59.25;97941.91;5083531;28;20052;-58
2023/05/14 08:17:23;;;;;;;;;;;;;;;14.35;59.78;97943.50;5077425;28;19924;-58
2023/05/14 08:20:11;;;;;;;;;;;;;;;14.22;58.90;97934.47;5081670;28;19991;-58
2023/05/14 08:23:00;;;;;;;;;;;;;;;14.11;59.67;97935.97;5087305;28;19920;-57
2023/05/14 08:25:49;;;;;;;;;;;;;;;14.07;60.14;97944.06;5080000;28;20492;-60
2023/05/14 08:28:38;;;;;;;;;;;;;;;14.13;60.57;97933.72;5072925;28;19950;-58
2023/05/14 08:31:26;;;;;;;;;;;;;;;14.22;60.08;97941.84;5084694;28;20265;-61
2023/05/14 08:34:14;;;;;;;;;;;;;;;14.22;59.60;97929.00;5081589;28;19965;-59
2023/05/14 08:37:02;;;;;;;;;;;;;;;14.29;59.19;97933.91;5084101;28;19927;-57
2023/05/14 08:39:51;;;;;;;;;;;;;;;14.35;59.09;97932.56;5089222;28;20467;-57
2023/05/14 08:42:40;;;;;;;;;;;;;;;14.45;59.34;97920.44;5073283;28;20073;-64
2023/05/14 08:45:30;;;;;;;;;;;;;;;14.61;58.40;97914.03;5072436;28;20076;-60
2023/05/14 08:48:19;;;;;;;;;;;;;;;14.69;58.60;97917.78;5071582;28;19931;-61
2023/05/14 08:51:07;;;;;;;;;;;;;;;14.86;57.65;97925.00;5100887;27;19938;-57
2023/05/14 08:53:56;;;;;;;;;;;;;;;14.89;57.26;97913.41;5076959;28;19950;-59
2023/05/14 08:56:47;;;;;;;;;;;;;;;14.79;57.02;97913.84;5083959;28;20388;-60
2023/05/14 08:59:41;;;;;;;;;;;;;;;14.59;57.60;97910.81;5081537;28;20028;-58
2023/05/14 09:02:30;;;;;;;;;;;;;;;14.58;57.75;97913.88;5094047;28;20398;-59
2023/05/14 09:05:19;;;;;;;;;;;;;;;14.67;58.61;97915.41;5100436;27;20543;-60
2023/05/14 09:08:10;;;;;;;;;;;;;;;14.79;57.65;97919.31;5080877;28;19935;-58
2023/05/14 09:10:59;;;;;;;;;;;;;;;14.90;57.18;97915.78;5085059;28;20742;-61
2023/05/14 09:13:47;;;;;;;;;;;;;;;14.97;57.48;97909.78;5093415;28;19930;-57
2023/05/14 09:16:37;;;;;;;;;;;;;;;15.20;56.44;97907.41;5088943;28;20020;-59
2023/05/14 09:19:25;;;;;;;;;;;;;;;15.56;55.54;97909.34;5075016;28;19990;-58
2023/05/14 09:22:15;;;;;;;;;;;;;;;15.91;54.86;97904.16;5074374;28;19956;-60
2023/05/14 09:25:04;;;;;;;;;;;;;;;16.01;54.86;97905.63;5081512;28;19928;-58
2023/05/14 09:27:53;;;;;;;;;;;;;;;16.04;54.77;97902.19;5087779;28;20339;-59
2023/05/14 09:30:47;;;;;;;;;;;;;;;15.98;53.91;97900.84;5091231;28;19928;-57
2023/05/14 09:33:36;;;;;;;;;;;;;;;15.84;54.94;97892.19;5083321;28;20327;-58
2023/05/14 09:36:25;;;;;;;;;;;;;;;15.83;55.38;97890.59;5083239;28;19935;-63
2023/05/14 09:39:18;;;;;;;;;;;;;;;15.71;54.96;97894.97;5086766;28;19991;-60
2023/05/14 09:42:10;;;;;;;;;;;;;;;15.79;54.62;97884.22;5085741;28;19926;-58
2023/05/14 09:44:59;;;;;;;;;;;;;;;15.86;53.99;97884.41;5083042;28;19998;-59
2023/05/14 09:47:48;;;;;;;;;;;;;;;16.03;53.50;97878.66;5082659;28;19958;-57
2023/05/14 09:50:42;;;;;;;;;;;;;;;15.99;53.41;97877.78;5078754;28;19920;-60
2023/05/14 09:53:31;;;;;;;;;;;;;;;16.10;53.32;97878.88;5083551;28;19978;-57
2023/05/14 09:56:19;;;;;;;;;;;;;;;16.10;53.48;97872.59;5091028;28;19927;-61
2023/05/14 09:59:10;;;;;;;;;;;;;;;16.00;53.60;97864.88;5076985;28;20099;-58
2023/05/14 10:01:58;;;;;;;;;;;;;;;16.00;53.68;97870.34;5079506;28;19939;-60
2023/05/14 10:04:47;;;;;;;;;;;;;;;15.97;53.97;97867.13;5065918;28;20595;-59
2023/05/14 10:07:39;;;;;;;;;;;;;;;15.91;53.59;97868.53;5091067;27;19935;-58
2023/05/14 10:10:27;;;;;;;;;;;;;;;16.00;53.36;97859.38;5084151;28;19943;-59
2023/05/14 10:13:17;;;;;;;;;;;;;;;16.14;53.74;97857.03;5086030;28;19938;-59
2023/05/14 10:16:06;;;;;;;;;;;;;;;16.27;52.67;97861.31;5083575;28;20414;-59
2023/05/14 10:18:56;;;;;;;;;;;;;;;16.46;52.22;97853.25;5079083;28;20157;-58
2023/05/14 10:21:46;;;;;;;;;;;;;;;16.54;51.77;97845.19;5085507;28;20598;-60
2023/05/14 10:24:37;;;;;;;;;;;;;;;16.75;51.54;97854.00;5088685;28;19942;-60
2023/05/14 10:27:25;;;;;;;;;;;;;;;16.65;51.40;97854.50;5070645;28;20017;-58
2023/05/14 10:30:14;;;;;;;;;;;;;;;16.80;51.38;97850.22;5091757;28;19954;-61
2023/05/14 10:33:06;;;;;;;;;;;;;;;17.10;50.37;97843.13;5075784;28;20407;-58
2023/05/14 10:35:58;;;;;;;;;;;;;;;17.12;49.71;97845.50;5079259;28;19931;-58
2023/05/14 10:38:46;;;;;;;;;;;;;;;17.02;49.89;97830.38;5084469;28;20561;-59
2023/05/14 10:41:35;;;;;;;;;;;;;;;17.05;49.47;97829.69;5088025;28;19958;-59
2023/05/14 10:44:24;;;;;;;;;;;;;;;17.10;49.94;97826.66;5078126;28;20811;-58
2023/05/14 10:47:12;;;;;;;;;;;;;;;16.93;49.75;97830.53;5078194;28;20001;-61
2023/05/14 10:50:01;;;;;;;;;;;;;;;16.84;50.58;97834.63;5086007;28;20433;-59
2023/05/14 10:52:50;;;;;;;;;;;;;;;16.99;50.26;97831.06;5071261;28;19920;-59
2023/05/14 10:55:42;;;;;;;;;;;;;;;17.08;50.48;97817.16;5084019;28;19975;-60
2023/05/14 10:58:33;;;;;;;;;;;;;;;17.23;50.06;97817.16;5078698;28;20425;-58
2023/05/14 11:01:23;;;;;;;;;;;;;;;17.39;50.01;97816.31;5074151;28;20576;-60
2023/05/14 11:04:17;;;;;;;;;;;;;;;17.39;50.02;97810.84;5081728;28;19930;-58
2023/05/14 11:07:06;;;;;;;;;;;;;;;17.21;49.82;97811.22;5073847;28;19938;-60
2023/05/14 11:09:56;;;;;;;;;;;;;;;16.95;50.45;97808.25;5090945;28;19938;-58
2023/05/14 11:12:44;;;;;;;;;;;;;;;16.89;50.61;97809.69;5082426;28;20006;-60
2023/05/14 11:15:34;;;;;;;;;;;;;;;16.89;50.57;97810.47;5089281;28;19957;-57
2023/05/14 11:18:26;;;;;;;;;;;;;;;16.95;50.08;97802.78;5080075;28;20379;-61
2023/05/14 11:21:15;;;;;;;;;;;;;;;16.99;49.81;97809.13;5068468;28;19950;-57
2023/05/14 11:24:04;;;;;;;;;;;;;;;17.03;50.35;97805.31;5073895;28;20033;-59
2023/05/14 11:26:54;;;;;;;;;;;;;;;17.14;49.95;97804.75;5060791;28;19930;-58
2023/05/14 11:29:43;;;;;;;;;;;;;;;17.16;49.13;97805.22;5071795;28;19931;-57
2023/05/14 11:32:33;;;;;;;;;;;;;;;17.19;50.34;97802.53;5070529;28;19920;-58
2023/05/14 11:35:21;;;;;;;;;;;;;;;17.08;49.30;97796.00;5072560;28;20035;-59
2023/05/14 11:38:13;;;;;;;;;;;;;;;16.82;49.88;97793.03;5076088;28;19927;-58
2023/05/14 11:41:03;;;;;;;;;;;;;;;16.58;50.70;97800.25;5065731;28;20390;-58
2023/05/14 11:43:52;;;;;;;;;;;;;;;16.42;51.10;97799.47;5073279;28;20397;-59
2023/05/14 11:46:40;;;;;;;;;;;;;;;16.27;51.10;97792.78;5080437;28;19928;-60
2023/05/14 11:49:30;;;;;;;;;;;;;;;16.28;52.12;97790.84;5081265;28;19939;-59
2023/05/14 11:52:20;;;;;;;;;;;;;;;16.37;51.72;97783.25;5076496;28;19924;-59
2023/05/14 11:55:10;;;;;;;;;;;;;;;16.42;51.84;97789.28;5066051;28;20275;-61
2023/05/14 11:57:59;;;;;;;;;;;;;;;16.47;51.32;97782.75;5081415;28;19942;-59
2023/05/14 12:00:49;;;;;;;;;;;;;;;16.50;51.00;97782.03;5074161;28;19935;-60
2023/05/14 12:03:38;;;;;;;;;;;;;;;16.48;51.65;97778.84;5066524;28;20025;-61
2023/05/14 12:06:31;;;;;;;;;;;;;;;16.39;51.51;97787.22;5073637;28;20924;-60
2023/05/14 12:09:20;;;;;;;;;;;;;;;16.31;51.04;97773.72;5079918;28;20502;-60
2023/05/14 12:12:09;;;;;;;;;;;;;;;16.22;51.76;97782.09;5076669;28;19927;-58
2023/05/14 12:14:59;;;;;;;;;;;;;;;16.10;51.79;97769.25;5071323;28;19934;-60
2023/05/14 12:17:51;;;;;;;;;;;;;;;16.07;51.74;97780.91;5070676;28;19942;-58
2023/05/14 12:20:40;;;;;;;;;;;;;;;16.11;51.82;97770.84;5085673;27;19942;-59
2023/05/14 12:23:30;;;;;;;;;;;;;;;16.20;51.93;97774.22;5087811;28;21605;-58
2023/05/14 12:26:18;;;;;;;;;;;;;;;16.33;51.48;97763.97;5072947;28;19937;-61
2023/05/14 12:29:07;;;;;;;;;;;;;;;16.46;51.88;97759.22;5083414;28;19964;-62
2023/05/14 12:31:56;;;;;;;;;;;;;;;16.59;50.81;97760.72;5070789;28;20548;-59
2023/05/14 12:34:45;;;;;;;;;;;;;;;16.77;51.30;97758.41;5085054;28;19935;-61
2023/05/14 12:37:41;;;;;;;;;;;;;;;16.92;50.33;97759.56;5090087;28;19935;-59
2023/05/14 12:40:31;;;;;;;;;;;;;;;17.02;49.93;97753.53;5086604;28;20387;-58
2023/05/14 12:43:19;;;;;;;;;;;;;;;17.03;50.54;97750.41;5079683;28;19961;-58
2023/05/14 12:46:08;;;;;;;;;;;;;;;17.12;49.64;97741.19;5115698;27;20435;-58
2023/05/14 12:48:57;;;;;;;;;;;;;;;17.11;49.42;97751.38;5073194;28;19935;-61
2023/05/14 12:51:46;;;;;;;;;;;;;;;17.08;49.69;97745.81;5085516;28;19938;-57
2023/05/14 12:54:34;;;;;;;;;;;;;;;17.18;49.64;97746.03;5076292;28;20024;-60
2023/05/14 12:57:24;;;;;;;;;;;;;;;17.24;49.99;97736.38;5074729;28;20037;-59
2023/05/14 13:00:13;;;;;;;;;;;;;;;17.42;48.80;97741.47;5078905;28;20025;-58
2023/05/14 13:03:01;;;;;;;;;;;;;;;17.42;48.16;97733.22;5084606;28;19935;-60
2023/05/14 13:05:50;;;;;;;;;;;;;;;17.42;48.27;97733.22;5075115;28;19979;-62
2023/05/14 13:08:39;;;;;;;;;;;;;;;17.43;47.89;97737.56;5085472;28;20415;-63
2023/05/14 13:11:30;;;;;;;;;;;;;;;17.41;48.87;97731.63;5089789;28;19928;-60
2023/05/14 13:14:20;;;;;;;;;;;;;;;17.45;47.71;97732.50;5090187;28;19973;-60
2023/05/14 13:17:08;;;;;;;;;;;;;;;17.55;49.31;97729.97;5093311;28;19957;-61
2023/05/14 13:19:58;;;;;;;;;;;;;;;17.58;47.38;97725.72;5089478;28;19934;-59
2023/05/14 13:22:47;;;;;;;;;;;;;;;17.47;47.36;97724.69;5087257;28;20344;-60
2023/05/14 13:25:35;;;;;;;;;;;;;;;17.44;47.41;97717.97;5099361;28;20431;-60
2023/05/14 13:28:23;;;;;;;;;;;;;;;17.44;47.93;97714.44;5081603;28;19958;-60
2023/05/14 13:31:14;;;;;;;;;;;;;;;17.46;47.16;97707.41;5081869;28;20027;-61
2023/05/14 13:34:03;;;;;;;;;;;;;;;17.42;47.72;97706.56;5083077;28;19938;-63
2023/05/14 13:36:51;;;;;;;;;;;;;;;17.59;48.88;97707.28;5086676;28;19943;-60
2023/05/14 13:39:39;;;;;;;;;;;;;;;17.57;47.38;97707.63;5082050;28;19963;-59
2023/05/14 13:42:28;;;;;;;;;;;;;;;17.46;47.42;97695.63;5086008;28;19935;-60
2023/05/14 13:45:16;;;;;;;;;;;;;;;17.54;46.57;97689.13;5081313;28;20379;-62
2023/05/14 13:48:06;;;;;;;;;;;;;;;17.60;47.10;97679.44;5074593;28;19943;-59
2023/05/14 13:50:55;;;;;;;;;;;;;;;17.74;46.33;97676.22;5087492;28;20455;-60
2023/05/14 13:53:44;;;;;;;;;;;;;;;17.74;46.61;97673.47;5088645;28;19941;-60
2023/05/14 13:56:34;;;;;;;;;;;;;;;17.67;46.67;97674.06;5077685;28;20039;-61
2023/05/14 13:59:23;;;;;;;;;;;;;;;17.63;46.59;97675.16;5086029;28;19930;-59
2023/05/14 14:02:11;;;;;;;;;;;;;;;17.86;47.58;97678.00;5078150;28;20450;-60
2023/05/14 14:05:00;;;;;;;;;;;;;;;17.98;47.51;97673.09;5083113;28;19954;-61
2023/05/14 14:07:51;;;;;;;;;;;;;;;18.22;45.84;97674.72;5091411;28;20672;-61
2023/05/14 14:10:43;;;;;;;;;;;;;;;18.39;45.39;97664.38;5081032;28;19980;-63
2023/05/14 14:13:35;;;;;;;;;;;;;;;18.44;45.14;97661.31;5083171;28;20375;-60
2023/05/14 14:16:23;;;;;;;;;;;;;;;18.42;44.36;97669.91;5093549;28;19951;-60
2023/05/14 14:19:14;;;;;;;;;;;;;;;18.38;44.76;97652.59;5090491;28;19930;-60
2023/05/14 14:22:05;;;;;;;;;;;;;;;18.30;45.11;97656.38;5083526;28;19926;-60
2023/05/14 14:24:53;;;;;;;;;;;;;;;18.29;45.17;97652.81;5090850;28;20019;-59
2023/05/14 14:27:42;;;;;;;;;;;;;;;18.35;45.75;97647.03;5090065;28;20472;-61
2023/05/14 14:30:30;;;;;;;;;;;;;;;18.45;45.47;97651.91;5091178;28;20079;-61
2023/05/14 14:33:21;;;;;;;;;;;;;;;18.44;45.29;97644.81;5086759;28;19942;-61
2023/05/14 14:36:10;;;;;;;;;;;;;;;18.58;44.68;97643.06;5080881;28;19935;-64
2023/05/14 14:39:00;;;;;;;;;;;;;;;18.81;44.38;97622.97;5090546;28;19935;-60
2023/05/14 14:41:48;;;;;;;;;;;;;;;18.89;44.22;97637.63;5074739;28;20062;-60